Time;durP1;ratioP1;P1;durP2;ratioP2;P2;SDS_P1;SDS_P2;PMS_P1;PMS_P2;Temp;Humidity;BMP_temperature;BMP_pressure;BME280_temperature;BME280_humidity;BME280_pressure;Samples;Min_cycle;Max_cycle;Signal;HPM_P1;HPM_P2
2022/06/02 00:01:54;;;;;;;;;;;;;;;12.29;79.89;100475.69;84810;1327;22586;-71
2022/06/02 00:04:03;;;;;;;;;;;;;;;12.31;79.75;100474.08;84790;1327;22555;-70
2022/06/02 00:06:21;;;;;;;;;;;;;;;12.29;79.83;100475.87;84788;1326;22586;-70
2022/06/02 00:08:33;;;;;;;;;;;;;;;12.27;79.82;100472.31;84807;1327;24345;-71
2022/06/02 00:10:49;;;;;;;;;;;;;;;12.27;80.06;100472.52;84824;1325;22563;-70
2022/06/02 00:12:57;;;;;;;;;;;;;;;12.26;80.16;100482.17;84817;1325;22565;-70
2022/06/02 00:15:14;;;;;;;;;;;;;;;12.25;80.12;100484.48;84811;1325;24234;-72
2022/06/02 00:17:26;;;;;;;;;;;;;;;12.25;80.36;100487.64;84787;1327;22570;-72
2022/06/02 00:19:38;;;;;;;;;;;;;;;12.25;80.68;100484.64;84809;1326;22569;-72
2022/06/02 00:21:47;;;;;;;;;;;;;;;12.24;80.73;100485.40;84810;1325;22553;-72
2022/06/02 00:23:54;;;;;;;;;;;;;;;12.23;80.57;100480.72;84806;1325;22893;-72
2022/06/02 00:26:04;;;;;;;;;;;;;;;12.23;80.57;100484.91;84800;1329;22567;-72
2022/06/02 00:28:21;;;;;;;;;;;;;;;12.24;80.78;100482.59;84833;1327;22554;-72
2022/06/02 00:30:31;;;;;;;;;;;;;;;12.24;80.46;100479.08;84791;1329;22621;-72
2022/06/02 00:32:42;;;;;;;;;;;;;;;12.27;80.62;100484.20;84787;1326;22582;-72
2022/06/02 00:34:50;;;;;;;;;;;;;;;12.30;80.72;100485.98;84802;1326;24270;-72
2022/06/02 00:37:03;;;;;;;;;;;;;;;12.33;80.58;100488.13;84817;1326;22570;-72
2022/06/02 00:39:09;;;;;;;;;;;;;;;12.36;80.58;100494.99;84709;1327;22566;-72
2022/06/02 00:41:20;;;;;;;;;;;;;;;12.38;80.61;100497.55;84795;1321;22554;-72
2022/06/02 00:43:52;;;;;;;;;;;;;;;12.40;80.65;100499.89;84799;1326;22818;-72
2022/06/02 00:46:00;;;;;;;;;;;;;;;12.43;80.69;100505.39;84801;1326;22610;-72
2022/06/02 00:48:13;;;;;;;;;;;;;;;12.46;80.66;100507.69;84785;1326;25965;-72
2022/06/02 00:50:33;;;;;;;;;;;;;;;12.50;80.77;100509.08;84832;1327;25238;-72
2022/06/02 00:52:51;;;;;;;;;;;;;;;12.53;80.50;100511.23;84812;1328;24224;-72
2022/06/02 00:57:31;;;;;;;;;;;;;;;12.60;80.28;100519.84;84791;1327;22557;-72
2022/06/02 00:59:39;;;;;;;;;;;;;;;12.64;80.25;100527.55;84821;1328;22565;-72
2022/06/02 01:01:45;;;;;;;;;;;;;;;12.66;80.04;100533.23;84798;1327;22828;-72
2022/06/02 01:03:51;;;;;;;;;;;;;;;12.68;79.90;100530.52;84820;1328;24255;-72
2022/06/02 01:06:14;;;;;;;;;;;;;;;12.72;79.96;100532.80;84799;1329;22917;-72
2022/06/02 01:08:25;;;;;;;;;;;;;;;12.76;79.92;100533.69;84791;1321;22659;-70
2022/06/02 01:10:38;;;;;;;;;;;;;;;12.78;79.91;100538.98;84776;1326;22569;-70
2022/06/02 01:12:59;;;;;;;;;;;;;;;12.81;79.73;100538.20;84807;1327;22876;-71
2022/06/02 01:15:17;;;;;;;;;;;;;;;12.83;79.62;100540.20;84813;1326;25459;-71
2022/06/02 01:17:31;;;;;;;;;;;;;;;12.85;79.57;100542.73;84841;1327;22659;-71
2022/06/02 01:19:59;;;;;;;;;;;;;;;12.83;79.30;100545.45;84804;1327;22838;-71
2022/06/02 01:22:21;;;;;;;;;;;;;;;12.82;79.27;100543.94;84790;1325;22642;-72
2022/06/02 01:24:38;;;;;;;;;;;;;;;12.81;79.17;100539.06;84795;1325;22676;-72
2022/06/02 01:26:54;;;;;;;;;;;;;;;12.80;79.24;100536.65;84799;1328;24229;-72
2022/06/02 01:29:02;;;;;;;;;;;;;;;12.78;79.23;100537.63;84805;1328;22912;-72
2022/06/02 01:31:16;;;;;;;;;;;;;;;12.78;79.08;100540.43;84799;1325;25262;-72
2022/06/02 01:33:29;;;;;;;;;;;;;;;12.76;79.14;100531.41;84798;1325;22695;-72
2022/06/02 01:35:40;;;;;;;;;;;;;;;12.75;79.35;100538.11;84808;1327;22815;-72
2022/06/02 01:37:55;;;;;;;;;;;;;;;12.73;79.29;100533.45;84823;1327;25450;-72
2022/06/02 01:40:06;;;;;;;;;;;;;;;12.71;79.11;100528.64;84821;1326;22565;-72
2022/06/02 01:42:15;;;;;;;;;;;;;;;12.70;79.12;100522.05;84823;1327;22567;-72
2022/06/02 01:44:23;;;;;;;;;;;;;;;12.67;79.29;100522.34;84811;1327;24732;-72
2022/06/02 01:46:43;;;;;;;;;;;;;;;12.64;79.12;100528.80;84799;1326;25224;-71
2022/06/02 01:48:52;;;;;;;;;;;;;;;12.61;79.29;100523.85;84787;1329;22619;-71
2022/06/02 01:51:02;;;;;;;;;;;;;;;12.57;79.18;100515.61;84806;1327;23901;-71
2022/06/02 01:53:14;;;;;;;;;;;;;;;12.54;79.27;100516.95;84796;1326;22566;-70
2022/06/02 01:55:37;;;;;;;;;;;;;;;12.51;79.30;100516.39;84782;1323;22570;-71
2022/06/02 01:57:55;;;;;;;;;;;;;;;12.47;79.52;100512.88;84790;1326;22595;-71
2022/06/02 02:00:08;;;;;;;;;;;;;;;12.44;79.67;100498.33;84803;1326;22573;-71
2022/06/02 02:02:18;;;;;;;;;;;;;;;12.42;79.53;100489.70;84813;1329;22586;-71
2022/06/02 02:04:45;;;;;;;;;;;;;;;12.39;79.88;100485.95;84639;1326;227487;-71
2022/06/02 02:06:53;;;;;;;;;;;;;;;12.38;80.08;100481.83;84811;1325;25078;-71
2022/06/02 02:09:09;;;;;;;;;;;;;;;12.38;80.17;100473.23;84795;1326;22573;-71
2022/06/02 02:11:43;;;;;;;;;;;;;;;12.38;80.43;100467.95;84820;1325;22693;-71
2022/06/02 02:13:53;;;;;;;;;;;;;;;12.39;80.52;100455.48;84789;1326;22578;-71
2022/06/02 02:16:04;;;;;;;;;;;;;;;12.43;80.61;100448.90;84789;1326;22584;-71
2022/06/02 02:18:20;;;;;;;;;;;;;;;12.44;80.41;100448.33;84750;1327;22917;-71
2022/06/02 02:20:32;;;;;;;;;;;;;;;12.43;80.48;100455.53;84803;1326;22592;-71
2022/06/02 02:22:41;;;;;;;;;;;;;;;12.40;80.45;100460.51;84805;1325;23913;-71
2022/06/02 02:24:54;;;;;;;;;;;;;;;12.39;80.53;100468.12;84800;1325;22601;-71
2022/06/02 02:27:03;;;;;;;;;;;;;;;12.37;80.43;100477.28;84794;1325;22566;-71
2022/06/02 02:29:17;;;;;;;;;;;;;;;12.39;80.87;100476.67;84790;1326;22600;-71
2022/06/02 02:31:31;;;;;;;;;;;;;;;12.40;80.98;100469.80;84829;1328;22711;-70
2022/06/02 02:33:44;;;;;;;;;;;;;;;12.39;80.81;100466.20;84776;1326;22590;-70
2022/06/02 02:35:57;;;;;;;;;;;;;;;12.39;80.97;100466.70;84788;1327;23034;-70
2022/06/02 02:38:07;;;;;;;;;;;;;;;12.41;81.33;100473.63;84807;1325;22570;-71
2022/06/02 02:40:16;;;;;;;;;;;;;;;12.42;81.13;100479.90;84804;1329;25295;-71
2022/06/02 02:42:23;;;;;;;;;;;;;;;12.41;81.19;100490.06;84783;1327;22583;-71
2022/06/02 02:44:35;;;;;;;;;;;;;;;12.41;81.42;100499.00;84790;1322;22590;-71
2022/06/02 02:46:46;;;;;;;;;;;;;;;12.43;81.58;100508.73;84805;1325;24105;-71
2022/06/02 02:48:55;;;;;;;;;;;;;;;12.45;81.42;100525.94;84816;1322;22674;-71
2022/06/02 02:51:08;;;;;;;;;;;;;;;12.49;81.25;100536.61;84781;1327;22586;-71
2022/06/02 02:53:17;;;;;;;;;;;;;;;12.51;81.00;100545.27;84801;1326;22575;-71
2022/06/02 02:55:24;;;;;;;;;;;;;;;12.52;80.52;100557.47;84806;1327;22556;-71
2022/06/02 02:57:38;;;;;;;;;;;;;;;12.53;80.53;100566.91;84791;1326;22866;-71
2022/06/02 02:59:46;;;;;;;;;;;;;;;12.53;80.25;100563.91;84810;1326;22825;-71
2022/06/02 03:01:57;;;;;;;;;;;;;;;12.53;79.88;100566.02;84784;1326;22569;-71
2022/06/02 03:04:09;;;;;;;;;;;;;;;12.52;79.71;100570.95;84760;1325;22583;-71
2022/06/02 03:06:23;;;;;;;;;;;;;;;12.52;79.55;100579.55;84773;1326;22575;-71
2022/06/02 03:08:35;;;;;;;;;;;;;;;12.51;79.62;100588.86;84809;1326;22893;-71
2022/06/02 03:10:41;;;;;;;;;;;;;;;12.50;79.86;100604.80;84809;1326;22677;-71
2022/06/02 03:12:58;;;;;;;;;;;;;;;12.49;80.00;100622.68;84812;1327;22565;-71
2022/06/02 03:15:15;;;;;;;;;;;;;;;12.49;79.91;100623.42;84793;1323;22847;-71
2022/06/02 03:17:29;;;;;;;;;;;;;;;12.49;80.02;100614.31;84804;1327;23884;-71
2022/06/02 03:19:41;;;;;;;;;;;;;;;12.50;80.16;100615.31;84794;1327;22573;-71
2022/06/02 03:21:51;;;;;;;;;;;;;;;12.49;80.34;100617.27;84805;1325;25320;-71
2022/06/02 03:24:33;;;;;;;;;;;;;;;12.50;80.23;100625.63;84801;1327;22564;-71
2022/06/02 03:26:47;;;;;;;;;;;;;;;12.52;80.47;100638.50;84775;1326;22577;-71
2022/06/02 03:28:57;;;;;;;;;;;;;;;12.54;80.63;100642.27;84819;1325;22890;-71
2022/06/02 03:31:07;;;;;;;;;;;;;;;12.56;80.67;100644.64;84805;1325;23952;-71
2022/06/02 03:33:19;;;;;;;;;;;;;;;12.59;80.69;100646.42;84797;1326;22587;-71
2022/06/02 03:35:27;;;;;;;;;;;;;;;12.63;80.88;100646.63;84807;1325;22580;-71
2022/06/02 03:37:41;;;;;;;;;;;;;;;12.66;80.98;100644.02;84809;1327;25406;-71
2022/06/02 03:39:54;;;;;;;;;;;;;;;12.71;81.17;100648.91;84805;1322;22786;-71
2022/06/02 03:42:07;;;;;;;;;;;;;;;12.76;81.25;100647.29;84802;1326;22548;-71
2022/06/02 03:44:17;;;;;;;;;;;;;;;12.81;81.36;100647.23;84791;1326;22803;-71
2022/06/02 03:46:46;;;;;;;;;;;;;;;12.84;81.20;100641.66;84816;1327;22602;-71
2022/06/02 03:49:00;;;;;;;;;;;;;;;12.88;81.10;100628.91;84793;1325;22586;-71
2022/06/02 03:51:17;;;;;;;;;;;;;;;12.90;81.02;100619.36;84813;1327;22786;-71
2022/06/02 03:53:51;;;;;;;;;;;;;;;12.94;81.11;100617.30;84789;1327;25483;-71
2022/06/02 03:56:03;;;;;;;;;;;;;;;12.94;81.00;100605.05;84800;1325;22585;-71
2022/06/02 03:58:17;;;;;;;;;;;;;;;12.93;80.93;100610.33;84791;1327;22577;-71
2022/06/02 04:00:24;;;;;;;;;;;;;;;12.94;81.11;100613.27;84819;1325;22687;-72
2022/06/02 04:02:33;;;;;;;;;;;;;;;12.95;81.31;100620.21;84789;1326;22587;-72
2022/06/02 04:04:44;;;;;;;;;;;;;;;12.95;81.46;100617.94;84799;1327;22573;-72
2022/06/02 04:06:58;;;;;;;;;;;;;;;12.97;81.64;100617.65;84788;1327;22621;-72
2022/06/02 04:09:09;;;;;;;;;;;;;;;12.99;81.59;100618.47;84786;1326;22563;-72
2022/06/02 04:11:28;;;;;;;;;;;;;;;12.98;81.75;100621.48;84804;1325;23747;-72
2022/06/02 04:13:40;;;;;;;;;;;;;;;12.99;81.70;100620.57;84796;1326;22593;-72
2022/06/02 04:15:54;;;;;;;;;;;;;;;13.00;81.72;100622.61;84815;1325;22557;-72
2022/06/02 04:18:03;;;;;;;;;;;;;;;13.01;81.70;100622.59;84773;1326;22872;-71
2022/06/02 04:20:35;;;;;;;;;;;;;;;13.02;81.83;100624.46;84779;1326;22573;-71
2022/06/02 04:22:52;;;;;;;;;;;;;;;13.00;81.77;100627.86;84799;1325;22513;-71
2022/06/02 04:25:07;;;;;;;;;;;;;;;12.99;81.87;100629.84;84802;1325;23770;-71
2022/06/02 04:27:17;;;;;;;;;;;;;;;12.97;81.79;100631.88;84696;1327;24254;-71
2022/06/02 04:29:30;;;;;;;;;;;;;;;12.95;81.92;100633.02;84766;1327;22641;-71
2022/06/02 04:31:45;;;;;;;;;;;;;;;12.92;81.84;100638.55;84821;1325;23917;-71
2022/06/02 04:33:55;;;;;;;;;;;;;;;12.88;81.83;100642.73;84802;1325;22730;-71
2022/06/02 04:36:05;;;;;;;;;;;;;;;12.83;81.79;100638.21;84827;1325;22725;-71
2022/06/02 04:38:17;;;;;;;;;;;;;;;12.79;81.95;100639.63;84796;1327;22742;-71
2022/06/02 04:40:30;;;;;;;;;;;;;;;12.76;81.99;100641.00;84799;1327;22578;-71
2022/06/02 04:42:40;;;;;;;;;;;;;;;12.72;82.01;100640.09;84779;1326;22573;-71
2022/06/02 04:44:50;;;;;;;;;;;;;;;12.70;82.00;100643.52;84789;1325;22650;-70
2022/06/02 04:47:03;;;;;;;;;;;;;;;12.68;82.02;100647.45;84815;1325;25413;-71
2022/06/02 04:49:13;;;;;;;;;;;;;;;12.66;82.34;100650.67;84786;1325;22563;-71
2022/06/02 04:51:24;;;;;;;;;;;;;;;12.64;82.37;100652.48;84796;1326;22557;-76
2022/06/02 04:53:32;;;;;;;;;;;;;;;12.63;82.23;100652.73;84807;1325;22576;-71
2022/06/02 04:55:45;;;;;;;;;;;;;;;12.62;82.50;100650.33;84809;1326;22576;-70
2022/06/02 04:57:53;;;;;;;;;;;;;;;12.64;82.53;100646.55;84807;1327;22773;-70
2022/06/02 05:00:05;;;;;;;;;;;;;;;12.64;82.71;100642.16;84832;1325;22571;-70
2022/06/02 05:02:18;;;;;;;;;;;;;;;12.67;82.78;100637.20;84791;1322;22558;-70
2022/06/02 05:04:39;;;;;;;;;;;;;;;12.68;82.87;100633.79;84784;1325;24252;-70
2022/06/02 05:06:48;;;;;;;;;;;;;;;12.67;82.72;100637.52;84790;1327;22642;-70
2022/06/02 05:09:05;;;;;;;;;;;;;;;12.67;82.82;100641.92;84777;1326;22566;-70
2022/06/02 05:11:16;;;;;;;;;;;;;;;12.66;83.04;100640.71;84789;1327;25256;-70
2022/06/02 05:13:29;;;;;;;;;;;;;;;12.70;83.20;100643.02;84804;1327;22593;-70
2022/06/02 05:15:55;;;;;;;;;;;;;;;12.73;83.46;100638.66;84804;1322;22700;-71
2022/06/02 05:18:14;;;;;;;;;;;;;;;12.79;83.54;100633.15;84798;1327;24267;-71
2022/06/02 05:20:50;;;;;;;;;;;;;;;12.84;83.39;100624.88;84767;1325;22766;-71
2022/06/02 05:23:03;;;;;;;;;;;;;;;12.91;83.39;100624.24;84719;1326;23770;-70
2022/06/02 05:25:19;;;;;;;;;;;;;;;12.98;83.50;100620.79;84791;1329;22569;-70
2022/06/02 05:27:47;;;;;;;;;;;;;;;13.04;83.66;100612.11;84803;1327;22658;-70
2022/06/02 05:30:01;;;;;;;;;;;;;;;13.10;83.46;100617.79;84770;1326;22582;-71
2022/06/02 05:32:18;;;;;;;;;;;;;;;13.13;83.37;100618.67;84812;1323;22592;-72
2022/06/02 05:34:32;;;;;;;;;;;;;;;13.17;83.27;100622.56;84787;1327;22590;-72
2022/06/02 05:36:51;;;;;;;;;;;;;;;13.18;83.08;100619.89;84802;1327;22573;-72
2022/06/02 05:39:05;;;;;;;;;;;;;;;13.16;83.08;100616.30;84810;1325;22570;-71
2022/06/02 05:41:18;;;;;;;;;;;;;;;13.13;82.87;100612.03;84820;1326;22562;-71
2022/06/02 05:43:29;;;;;;;;;;;;;;;13.12;83.08;100615.58;84788;1325;22981;-71
2022/06/02 05:45:45;;;;;;;;;;;;;;;13.14;83.10;100617.23;84806;1327;24225;-71
2022/06/02 05:48:00;;;;;;;;;;;;;;;13.16;83.08;100619.80;84790;1325;23554;-71
2022/06/02 05:50:12;;;;;;;;;;;;;;;13.15;83.01;100616.33;84798;1322;22586;-71
2022/06/02 05:52:25;;;;;;;;;;;;;;;13.10;82.79;100614.98;84810;1325;22577;-71
2022/06/02 05:54:43;;;;;;;;;;;;;;;13.05;82.73;100617.48;84792;1326;22557;-70
2022/06/02 05:56:54;;;;;;;;;;;;;;;13.01;82.96;100623.81;84795;1326;25489;-70
2022/06/02 05:59:22;;;;;;;;;;;;;;;13.00;83.14;100635.38;84798;1325;22709;-70
2022/06/02 06:01:42;;;;;;;;;;;;;;;13.00;83.26;100645.40;84795;1325;25266;-70
2022/06/02 06:03:57;;;;;;;;;;;;;;;12.96;83.18;100660.27;84791;1326;24206;-70
2022/06/02 06:06:04;;;;;;;;;;;;;;;12.96;83.48;100669.54;84801;1325;22868;-70
2022/06/02 06:08:27;;;;;;;;;;;;;;;12.97;83.80;100675.46;84769;1326;22580;-70
2022/06/02 06:10:37;;;;;;;;;;;;;;;13.00;84.08;100669.19;84776;1327;23907;-69
2022/06/02 06:12:57;;;;;;;;;;;;;;;13.08;84.37;100662.70;84795;1321;22814;-70
2022/06/02 06:15:08;;;;;;;;;;;;;;;13.19;84.70;100649.81;84814;1325;22569;-71
2022/06/02 06:17:23;;;;;;;;;;;;;;;13.34;84.73;100646.19;84762;1326;23731;-71
2022/06/02 06:19:48;;;;;;;;;;;;;;;13.54;84.93;100644.05;84799;1327;22563;-71
2022/06/02 06:22:07;;;;;;;;;;;;;;;13.80;84.84;100643.20;84720;1328;23899;-71
2022/06/02 06:24:21;;;;;;;;;;;;;;;14.34;87.17;100645.50;84775;1327;24232;-71
2022/06/02 06:26:34;;;;;;;;;;;;;;;15.49;87.60;100650.87;84793;1327;24203;-71
2022/06/02 06:28:43;;;;;;;;;;;;;;;16.14;85.54;100646.41;84801;1327;22566;-72
2022/06/02 06:30:59;;;;;;;;;;;;;;;17.26;86.03;100650.34;84794;1325;22565;-72
2022/06/02 06:33:12;;;;;;;;;;;;;;;18.64;82.28;100651.79;84794;1322;22589;-72
2022/06/02 06:35:28;;;;;;;;;;;;;;;19.94;78.34;100653.83;84786;1326;22589;-72
2022/06/02 06:37:58;;;;;;;;;;;;;;;21.18;72.34;100650.55;84786;1323;22576;-72
2022/06/02 06:40:10;;;;;;;;;;;;;;;22.35;67.71;100650.23;84803;1326;22573;-72
2022/06/02 06:42:29;;;;;;;;;;;;;;;23.26;64.93;100646.09;84785;1326;22590;-72
2022/06/02 06:44:39;;;;;;;;;;;;;;;24.63;62.19;100651.69;84786;1327;25297;-72
2022/06/02 06:46:50;;;;;;;;;;;;;;;25.34;58.04;100656.43;84798;1325;22854;-72
2022/06/02 06:48:59;;;;;;;;;;;;;;;25.38;55.44;100652.17;84796;1327;22599;-72
2022/06/02 06:51:08;;;;;;;;;;;;;;;25.26;54.09;100650.27;84798;1325;22564;-73
2022/06/02 06:53:24;;;;;;;;;;;;;;;25.03;54.26;100661.68;84809;1322;22666;-71
2022/06/02 06:55:39;;;;;;;;;;;;;;;24.82;54.09;100660.62;84803;1325;25462;-70
2022/06/02 06:57:49;;;;;;;;;;;;;;;24.43;53.94;100663.14;84795;1325;22636;-70
2022/06/02 06:59:58;;;;;;;;;;;;;;;24.38;54.93;100663.48;84805;1325;22561;-70
2022/06/02 07:02:15;;;;;;;;;;;;;;;25.00;55.13;100659.13;84814;1327;24213;-70
2022/06/02 07:04:35;;;;;;;;;;;;;;;25.60;52.92;100660.70;84787;1327;22552;-70
2022/06/02 07:06:45;;;;;;;;;;;;;;;25.54;51.32;100662.95;84778;1327;22566;-70
2022/06/02 07:08:53;;;;;;;;;;;;;;;25.09;51.27;100668.09;84808;1325;22573;-70
2022/06/02 07:11:04;;;;;;;;;;;;;;;24.63;51.39;100672.02;84799;1326;22555;-71
2022/06/02 07:13:15;;;;;;;;;;;;;;;24.22;51.88;100669.33;84802;1321;22563;-72
2022/06/02 07:15:28;;;;;;;;;;;;;;;23.89;52.39;100672.47;84798;1327;22849;-72
2022/06/02 07:17:38;;;;;;;;;;;;;;;23.46;53.19;100673.76;84818;1325;25465;-72
2022/06/02 07:19:50;;;;;;;;;;;;;;;23.18;53.86;100678.14;84798;1326;25541;-72
2022/06/02 07:22:00;;;;;;;;;;;;;;;23.24;54.67;100679.23;84797;1322;22577;-72
2022/06/02 07:24:12;;;;;;;;;;;;;;;23.55;55.11;100677.56;84796;1326;22584;-72
2022/06/02 07:26:25;;;;;;;;;;;;;;;24.18;54.59;100678.23;84804;1322;22630;-72
2022/06/02 07:28:35;;;;;;;;;;;;;;;24.39;53.23;100685.13;84792;1327;22702;-71
2022/06/02 07:30:50;;;;;;;;;;;;;;;24.70;53.01;100690.86;84815;1326;22790;-71
2022/06/02 07:33:11;;;;;;;;;;;;;;;25.11;52.12;100688.41;84804;1322;22567;-71
2022/06/02 07:36:03;;;;;;;;;;;;;;;25.13;51.10;100689.81;84809;1326;22584;-71
2022/06/02 07:38:15;;;;;;;;;;;;;;;24.71;50.42;100694.80;84786;1325;22565;-71
2022/06/02 07:40:54;;;;;;;;;;;;;;;24.28;49.85;100692.32;84786;1328;22569;-70
2022/06/02 07:43:57;;;;;;;;;;;;;;;;;;;;;
2022/06/02 07:46:30;;;;;;;;;;;;;;;23.89;52.59;100702.57;84768;1326;22593;-71
2022/06/02 07:48:50;;;;;;;;;;;;;;;24.33;50.89;100706.17;84691;1325;24918;-71
2022/06/02 07:51:05;;;;;;;;;;;;;;;24.44;50.30;100712.48;84764;1321;22845;-72
2022/06/02 07:53:13;;;;;;;;;;;;;;;24.23;50.00;100717.89;84814;1327;23326;-71
2022/06/02 07:55:27;;;;;;;;;;;;;;;23.85;49.42;100721.50;84807;1326;22528;-71
2022/06/02 07:58:20;;;;;;;;;;;;;;;;;;;;;
2022/06/02 08:01:16;;;;;;;;;;;;;;;22.40;50.84;100739.41;84642;1325;22651;-71
2022/06/02 08:06:47;;;;;;;;;;;;;;;21.22;52.91;100746.66;84340;1324;22585;-71
2022/06/02 08:09:10;;;;;;;;;;;;;;;20.87;53.70;100746.25;84780;1327;24401;-71
2022/06/02 08:11:25;;;;;;;;;;;;;;;20.44;53.70;100743.02;84791;1325;22998;-71
2022/06/02 08:13:39;;;;;;;;;;;;;;;20.17;54.63;100756.36;84659;1327;22578;-71
2022/06/02 08:15:51;;;;;;;;;;;;;;;19.92;55.05;100761.88;84795;1322;22661;-71
2022/06/02 08:18:02;;;;;;;;;;;;;;;19.80;55.96;100766.41;84789;1323;22574;-70
2022/06/02 08:20:16;;;;;;;;;;;;;;;19.74;56.25;100768.81;84803;1325;22636;-71
2022/06/02 08:22:32;;;;;;;;;;;;;;;19.67;56.32;100777.11;84771;1324;22607;-71
2022/06/02 08:24:54;;;;;;;;;;;;;;;19.92;56.65;100783.95;84798;1325;22651;-71
2022/06/02 08:27:37;;;;;;;;;;;;;;;20.21;56.60;100784.73;84784;1327;22576;-70
2022/06/02 08:30:33;;;;;;;;;;;;;;;20.52;55.88;100778.42;84391;1333;23850;-70
2022/06/02 08:32:56;;;;;;;;;;;;;;;21.77;56.20;100780.89;84516;1330;22576;-70
2022/06/02 08:35:14;;;;;;;;;;;;;;;23.36;54.88;100774.83;84769;1327;25314;-70
2022/06/02 08:37:24;;;;;;;;;;;;;;;24.51;51.82;100773.39;84800;1329;24382;-70
2022/06/02 08:39:50;;;;;;;;;;;;;;;24.95;49.41;100774.53;84830;1327;22596;-70
2022/06/02 08:42:09;;;;;;;;;;;;;;;24.99;46.78;100776.52;84762;1326;22582;-70
2022/06/02 08:44:54;;;;;;;;;;;;;;;24.86;46.51;100774.05;84795;1325;23952;-71
2022/06/02 08:47:54;;;;;;;;;;;;;;;24.72;45.05;100767.75;84809;1326;22581;-71
2022/06/02 08:50:27;;;;;;;;;;;;;;;24.30;44.38;100766.65;84766;1326;22577;-71
2022/06/02 08:52:48;;;;;;;;;;;;;;;23.91;45.16;100775.84;84818;1325;22586;-71
2022/06/02 08:55:15;;;;;;;;;;;;;;;23.46;45.28;100781.28;84793;1329;22593;-71
2022/06/02 08:57:36;;;;;;;;;;;;;;;22.92;45.89;100777.35;84788;1328;22834;-70
2022/06/02 09:00:09;;;;;;;;;;;;;;;22.45;46.45;100782.60;84796;1325;22579;-70
2022/06/02 09:02:42;;;;;;;;;;;;;;;21.93;46.37;100781.21;84796;1322;24263;-70
2022/06/02 09:05:04;;;;;;;;;;;;;;;21.38;47.49;100792.62;84803;1325;22564;-70
2022/06/02 09:07:31;;;;;;;;;;;;;;;21.00;48.72;100806.27;84798;1325;22815;-70
2022/06/02 09:09:57;;;;;;;;;;;;;;;20.73;50.18;100808.79;84783;1326;22573;-70
2022/06/02 09:12:17;;;;;;;;;;;;;;;20.74;51.73;100808.58;84783;1327;22650;-70
2022/06/02 09:14:45;;;;;;;;;;;;;;;21.36;51.99;100811.73;84790;1327;22757;-70
2022/06/02 09:17:01;;;;;;;;;;;;;;;21.94;51.59;100808.85;84730;1327;22557;-70
2022/06/02 09:19:38;;;;;;;;;;;;;;;22.26;49.62;100796.76;84794;1327;22587;-70
2022/06/02 09:21:55;;;;;;;;;;;;;;;22.22;47.42;100794.63;84785;1322;24316;-70
2022/06/02 09:24:06;;;;;;;;;;;;;;;21.98;47.35;100794.00;84782;1326;24444;-70
2022/06/02 09:26:30;;;;;;;;;;;;;;;21.82;47.99;100789.54;84799;1325;22576;-70
2022/06/02 09:28:59;;;;;;;;;;;;;;;21.74;47.94;100788.07;84790;1327;22602;-69
2022/06/02 09:31:40;;;;;;;;;;;;;;;21.80;47.60;100780.46;84795;1321;22563;-70
2022/06/02 09:33:56;;;;;;;;;;;;;;;21.85;46.38;100775.11;84790;1322;22676;-70
2022/06/02 09:36:09;;;;;;;;;;;;;;;22.14;47.40;100774.80;84793;1325;23757;-70
2022/06/02 09:38:42;;;;;;;;;;;;;;;22.58;47.74;100772.11;84803;1322;22583;-71
2022/06/02 09:40:50;;;;;;;;;;;;;;;22.97;46.44;100772.26;84780;1327;25412;-71
2022/06/02 09:43:14;;;;;;;;;;;;;;;23.16;45.39;100774.05;84795;1327;22778;-71
2022/06/02 09:45:31;;;;;;;;;;;;;;;23.30;45.08;100776.77;84805;1323;22565;-71
2022/06/02 09:47:57;;;;;;;;;;;;;;;23.44;44.46;100776.14;84781;1321;22606;-71
2022/06/02 09:50:22;;;;;;;;;;;;;;;23.52;43.66;100775.14;84817;1325;22677;-70
2022/06/02 09:52:36;;;;;;;;;;;;;;;23.64;43.91;100771.95;84793;1323;22629;-70
2022/06/02 09:54:50;;;;;;;;;;;;;;;23.80;42.86;100771.46;84757;1326;25240;-70
2022/06/02 09:59:47;;;;;;;;;;;;;;;24.01;42.84;100770.52;84697;1327;22577;-70
2022/06/02 10:02:10;;;;;;;;;;;;;;;24.11;42.39;100768.58;84774;1326;22586;-70
2022/06/02 10:07:49;;;;;;;;;;;;;;;24.08;42.13;100765.22;84672;1327;22591;-70
2022/06/02 10:14:09;;;;;;;;;;;;;;;24.12;40.99;100771.30;84618;1326;22629;-70
2022/06/02 10:16:54;;;;;;;;;;;;;;;24.16;41.44;100772.92;84769;1327;24135;-71
2022/06/02 10:19:59;;;;;;;;;;;;;;;24.18;40.77;100775.04;84535;1331;24286;-70
2022/06/02 10:26:15;;;;;;;;;;;;;;;24.08;40.52;100780.61;84430;1331;22574;-70
2022/06/02 10:32:19;;;;;;;;;;;;;;;24.09;40.26;100783.02;84684;1326;22806;-71
2022/06/02 10:35:01;;;;;;;;;;;;;;;24.02;40.12;100785.75;84787;1327;22580;-71
2022/06/02 10:37:32;;;;;;;;;;;;;;;24.00;40.46;100784.50;84764;1328;22641;-71
2022/06/02 10:39:47;;;;;;;;;;;;;;;24.01;40.53;100777.84;84770;1325;22574;-70
2022/06/02 10:42:35;;;;;;;;;;;;;;;24.04;40.00;100779.70;84786;1326;25422;-70
2022/06/02 10:45:15;;;;;;;;;;;;;;;23.99;39.07;100775.83;84757;1323;22571;-70
2022/06/02 10:47:53;;;;;;;;;;;;;;;23.85;39.27;100784.02;84765;1326;24261;-71
2022/06/02 10:50:08;;;;;;;;;;;;;;;23.85;40.10;100782.27;84779;1326;22553;-71
2022/06/02 10:52:47;;;;;;;;;;;;;;;23.85;39.58;100780.61;84765;1327;24492;-71
2022/06/02 10:55:03;;;;;;;;;;;;;;;23.83;40.37;100774.23;84805;1327;22593;-71
2022/06/02 10:57:32;;;;;;;;;;;;;;;23.84;40.45;100776.25;84803;1327;22638;-71
2022/06/02 11:00:00;;;;;;;;;;;;;;;23.74;40.21;100780.02;84730;1326;22593;-70
2022/06/02 11:02:33;;;;;;;;;;;;;;;23.70;40.17;100776.45;84793;1325;22722;-70
2022/06/02 11:05:19;;;;;;;;;;;;;;;23.64;40.19;100778.86;84759;1326;22616;-71
2022/06/02 11:07:59;;;;;;;;;;;;;;;23.60;40.91;100779.91;84451;1332;22639;-71
2022/06/02 11:10:28;;;;;;;;;;;;;;;23.70;40.51;100780.86;84630;1327;23106;-71
2022/06/02 11:12:56;;;;;;;;;;;;;;;23.75;39.33;100777.77;84807;1326;22853;-72
2022/06/02 11:15:14;;;;;;;;;;;;;;;23.75;38.87;100783.98;84798;1327;22589;-71
2022/06/02 11:17:33;;;;;;;;;;;;;;;23.66;38.94;100780.71;84790;1327;24261;-71
2022/06/02 11:20:24;;;;;;;;;;;;;;;23.65;39.29;100783.95;84805;1327;22550;-71
2022/06/02 11:23:02;;;;;;;;;;;;;;;23.79;40.14;100789.21;84808;1325;22725;-71
2022/06/02 11:25:32;;;;;;;;;;;;;;;23.98;39.50;100783.26;84651;1325;22728;-71
2022/06/02 11:28:15;;;;;;;;;;;;;;;24.05;39.09;100781.54;84764;1327;23968;-71
2022/06/02 11:30:34;;;;;;;;;;;;;;;24.06;38.55;100780.98;84571;1329;22573;-71
2022/06/02 11:32:49;;;;;;;;;;;;;;;24.12;38.85;100778.97;84817;1326;24185;-70
2022/06/02 11:35:25;;;;;;;;;;;;;;;24.22;39.10;100783.95;84786;1324;22587;-70
2022/06/02 11:37:51;;;;;;;;;;;;;;;24.08;38.80;100794.29;84810;1327;22603;-72
2022/06/02 11:40:13;;;;;;;;;;;;;;;23.82;38.84;100794.09;84794;1325;22551;-72
2022/06/02 11:42:30;;;;;;;;;;;;;;;23.52;38.91;100790.92;84814;1325;22815;-72
2022/06/02 11:44:42;;;;;;;;;;;;;;;23.28;39.13;100801.55;84807;1327;22583;-72
2022/06/02 11:47:28;;;;;;;;;;;;;;;23.07;38.80;100803.62;84821;1325;25450;-71
2022/06/02 11:50:15;;;;;;;;;;;;;;;22.77;39.14;100802.22;84802;1327;22602;-71
2022/06/02 11:52:33;;;;;;;;;;;;;;;22.51;39.16;100804.67;84627;1327;22581;-71
2022/06/02 11:55:02;;;;;;;;;;;;;;;22.35;39.46;100806.52;84782;1321;22654;-71
2022/06/02 11:57:23;;;;;;;;;;;;;;;22.18;39.72;100806.12;84745;1323;24214;-71
2022/06/02 12:00:03;;;;;;;;;;;;;;;22.18;40.43;100806.13;84806;1325;22889;-71
2022/06/02 12:02:24;;;;;;;;;;;;;;;22.41;40.72;100804.75;84802;1325;22585;-71
2022/06/02 12:04:50;;;;;;;;;;;;;;;22.50;40.65;100803.73;84819;1322;22687;-71
2022/06/02 12:07:18;;;;;;;;;;;;;;;22.55;41.36;100802.40;84822;1325;22592;-71
2022/06/02 12:09:36;;;;;;;;;;;;;;;22.59;40.79;100801.52;84806;1327;22914;-71
2022/06/02 12:11:50;;;;;;;;;;;;;;;22.48;40.54;100806.17;84795;1325;24452;-71
2022/06/02 12:14:08;;;;;;;;;;;;;;;22.37;40.68;100810.63;84827;1325;24374;-71
2022/06/02 12:16:42;;;;;;;;;;;;;;;22.19;40.48;100815.79;84828;1327;25904;-71